COOK73 RJOC-UITT
Flight info
| Callsign | COOK73 |
|---|---|
| Flight time | N/A |
| Altitude | 38000 |
| Route | XZE B332 KANSU/K0806F380 M825 VASRO/K0811S1160 R224 YNJ W39 UGABI B451 HLD A345 TELOK/K0800F380 A810 AGINO A91 KTN R809 ATBAT G363 UNGER DCT ERMIK ERMIK4L |
| Aircraft | C25C/M-SDE2E3FGHRWXY/LB1 |
Departure
| Time | 2026-04-28 16:15 |
|---|---|
| Airport | Izumo Enmusubi Airport (RJOC) |
Arrival
| Time | N/A |
|---|---|
| Airport | Ust-Kut Airport (UITT) |
| Time | Latitude | Longitude | Altitude | Speed | Heading |
|---|---|---|---|---|---|
| 2026-04-28 15:49 | 35.41459 | 132.88657 | 12 ft | 0 kts | 324° |
| 2026-04-28 16:07 | 35.41446 | 132.88669 | 12 ft | 6 kts | 324° |
| 2026-04-28 16:08 | 35.41420 | 132.88691 | 12 ft | 2 kts | 334° |
| 2026-04-28 16:08 | 35.41409 | 132.88694 | 12 ft | 2 kts | 9° |
| 2026-04-28 16:08 | 35.41394 | 132.88691 | 12 ft | 2 kts | 340° |
| 2026-04-28 16:09 | 35.41377 | 132.88714 | 12 ft | 2 kts | 303° |
| 2026-04-28 16:09 | 35.41375 | 132.88728 | 12 ft | 2 kts | 240° |
| 2026-04-28 16:09 | 35.41377 | 132.88732 | 13 ft | 0 kts | 220° |
| 2026-04-28 16:11 | 35.41377 | 132.88731 | 13 ft | 1 kts | 224° |
| 2026-04-28 16:11 | 35.41277 | 132.88690 | 12 ft | 10 kts | 162° |
| 2026-04-28 16:12 | 35.41182 | 132.88601 | 12 ft | 9 kts | 238° |
| 2026-04-28 16:12 | 35.41149 | 132.88535 | 13 ft | 9 kts | 238° |
| 2026-04-28 16:13 | 35.41072 | 132.88378 | 12 ft | 12 kts | 239° |
| 2026-04-28 16:13 | 35.41027 | 132.88286 | 13 ft | 12 kts | 239° |
| 2026-04-28 16:13 | 35.40946 | 132.88151 | 11 ft | 6 kts | 211° |
| 2026-04-28 16:14 | 35.40917 | 132.88075 | 10 ft | 5 kts | 5° |
| 2026-04-28 16:14 | 35.41042 | 132.88313 | 12 ft | 71 kts | 59° |
| 2026-04-28 16:15 | 35.41945 | 132.90145 | 876 ft | 147 kts | 54° |
| 2026-04-28 16:15 | 35.42947 | 132.90692 | 1284 ft | 178 kts | 5° |
| 2026-04-28 16:15 | 35.44228 | 132.91135 | 1695 ft | 206 kts | 24° |
| 2026-04-28 16:16 | 35.46965 | 132.92665 | 3457 ft | 217 kts | 13° |
| 2026-04-28 16:16 | 35.48455 | 132.92480 | 4513 ft | 220 kts | 339° |
| 2026-04-28 16:17 | 35.50062 | 132.89520 | 6506 ft | 224 kts | 266° |
| 2026-04-28 16:17 | 35.49585 | 132.87743 | 7438 ft | 227 kts | 233° |
| 2026-04-28 16:17 | 35.48327 | 132.86599 | 8369 ft | 230 kts | 198° |
| 2026-04-28 16:17 | 35.46737 | 132.86579 | 9275 ft | 235 kts | 162° |
| 2026-04-28 16:18 | 35.45443 | 132.87773 | 10173 ft | 240 kts | 123° |
| 2026-04-28 16:18 | 35.45051 | 132.89742 | 11012 ft | 245 kts | 84° |
| 2026-04-28 16:18 | 35.45770 | 132.91611 | 11828 ft | 248 kts | 45° |
| 2026-04-28 16:18 | 35.47295 | 132.92544 | 12643 ft | 251 kts | 6° |
| 2026-04-28 16:19 | 35.48985 | 132.92129 | 13442 ft | 252 kts | 329° |
| 2026-04-28 16:19 | 35.50426 | 132.90869 | 14220 ft | 256 kts | 323° |
| 2026-04-28 16:19 | 35.51925 | 132.89655 | 14992 ft | 260 kts | 329° |
| 2026-04-28 16:19 | 35.53559 | 132.88670 | 15735 ft | 263 kts | 337° |
| 2026-04-28 16:20 | 35.55308 | 132.88041 | 16453 ft | 267 kts | 350° |
| 2026-04-28 16:20 | 35.57195 | 132.87876 | 17173 ft | 270 kts | 359° |
| 2026-04-28 16:20 | 35.59064 | 132.87842 | 17865 ft | 274 kts | 358° |
| 2026-04-28 16:20 | 35.60975 | 132.87715 | 18565 ft | 277 kts | 355° |
| 2026-04-28 16:21 | 35.62907 | 132.87535 | 19250 ft | 280 kts | 355° |
| 2026-04-28 16:21 | 35.64863 | 132.87362 | 19933 ft | 283 kts | 355° |
| 2026-04-28 16:21 | 35.66835 | 132.87208 | 20612 ft | 286 kts | 356° |
| 2026-04-28 16:21 | 35.68834 | 132.87049 | 21277 ft | 289 kts | 356° |
| 2026-04-28 16:22 | 35.70849 | 132.86887 | 21928 ft | 292 kts | 355° |
| 2026-04-28 16:22 | 35.72891 | 132.86720 | 22570 ft | 295 kts | 356° |
| 2026-04-28 16:22 | 35.74952 | 132.86552 | 23199 ft | 298 kts | 355° |
| 2026-04-28 16:22 | 35.77039 | 132.86385 | 23819 ft | 301 kts | 355° |
| 2026-04-28 16:23 | 35.79141 | 132.86213 | 24427 ft | 305 kts | 356° |
| 2026-04-28 16:23 | 35.81268 | 132.86040 | 25030 ft | 308 kts | 355° |
| 2026-04-28 16:23 | 35.83386 | 132.85870 | 25614 ft | 311 kts | 356° |
| 2026-04-28 16:23 | 35.85552 | 132.85691 | 26184 ft | 314 kts | 356° |
| 2026-04-28 16:24 | 35.87743 | 132.85515 | 26725 ft | 317 kts | 355° |
| 2026-04-28 16:24 | 35.89953 | 132.85335 | 27252 ft | 319 kts | 356° |
| 2026-04-28 16:24 | 35.92183 | 132.85152 | 27765 ft | 322 kts | 355° |
| 2026-04-28 16:24 | 35.94431 | 132.84971 | 28262 ft | 325 kts | 355° |
| 2026-04-28 16:25 | 35.96689 | 132.84786 | 28834 ft | 325 kts | 356° |
| 2026-04-28 16:25 | 35.98944 | 132.84601 | 29421 ft | 324 kts | 355° |
| 2026-04-28 16:25 | 36.01191 | 132.84420 | 29987 ft | 323 kts | 355° |
| 2026-04-28 16:25 | 36.03436 | 132.84235 | 30538 ft | 323 kts | 356° |
| 2026-04-28 16:26 | 36.05674 | 132.84052 | 31063 ft | 322 kts | 355° |
| 2026-04-28 16:26 | 36.07911 | 132.83871 | 31568 ft | 321 kts | 356° |
| 2026-04-28 16:26 | 36.10143 | 132.83687 | 32073 ft | 321 kts | 356° |
| 2026-04-28 16:26 | 36.12368 | 132.83505 | 32562 ft | 320 kts | 355° |
| 2026-04-28 16:27 | 36.14560 | 132.83326 | 33038 ft | 320 kts | 356° |
| 2026-04-28 16:27 | 36.16779 | 132.83143 | 33510 ft | 319 kts | 355° |
| 2026-04-28 16:27 | 36.21206 | 132.82781 | 34416 ft | 318 kts | 356° |
| 2026-04-28 16:28 | 36.23413 | 132.82599 | 34848 ft | 317 kts | 355° |
| 2026-04-28 16:28 | 36.24870 | 132.82481 | 35126 ft | 317 kts | 356° |
| 2026-04-28 16:28 | 36.27813 | 132.82239 | 35674 ft | 316 kts | 356° |
| 2026-04-28 16:28 | 36.29268 | 132.82120 | 35934 ft | 316 kts | 355° |
| 2026-04-28 16:29 | 36.34363 | 132.81700 | 36784 ft | 315 kts | 356° |
| 2026-04-28 16:29 | 36.38752 | 132.81339 | 37462 ft | 316 kts | 355° |
| 2026-04-28 16:30 | 36.40207 | 132.81218 | 37679 ft | 316 kts | 355° |
| 2026-04-28 16:30 | 36.43154 | 132.80975 | 37938 ft | 322 kts | 355° |
| 2026-04-28 16:30 | 36.44652 | 132.80852 | 37973 ft | 328 kts | 355° |
| 2026-04-28 16:31 | 36.49347 | 132.80464 | 38010 ft | 348 kts | 355° |
| 2026-04-28 16:31 | 36.54321 | 132.80052 | 38012 ft | 367 kts | 355° |
| 2026-04-28 16:32 | 36.59509 | 132.79622 | 38012 ft | 384 kts | 356° |
| 2026-04-28 16:32 | 36.64947 | 132.79172 | 38011 ft | 399 kts | 356° |
| 2026-04-28 16:32 | 36.67728 | 132.78940 | 38012 ft | 402 kts | 356° |
| 2026-04-28 16:33 | 36.72399 | 132.78552 | 38013 ft | 406 kts | 356° |
| 2026-04-28 16:33 | 36.79041 | 132.78001 | 38010 ft | 411 kts | 356° |
| 2026-04-28 16:34 | 36.84780 | 132.77523 | 38011 ft | 414 kts | 356° |
| 2026-04-28 16:34 | 36.90525 | 132.77042 | 38010 ft | 417 kts | 355° |
| 2026-04-28 16:35 | 36.96336 | 132.76556 | 38007 ft | 419 kts | 356° |
| 2026-04-28 16:35 | 37.02172 | 132.76068 | 38008 ft | 421 kts | 356° |
| 2026-04-28 16:36 | 37.08031 | 132.75577 | 38008 ft | 423 kts | 356° |
| 2026-04-28 16:36 | 37.13909 | 132.75084 | 38010 ft | 424 kts | 355° |
| 2026-04-28 16:37 | 37.19779 | 132.74589 | 38010 ft | 425 kts | 356° |
| 2026-04-28 16:38 | 37.28645 | 132.73843 | 38010 ft | 426 kts | 355° |
| 2026-04-28 16:38 | 37.34503 | 132.72977 | 38007 ft | 426 kts | 351° |
| 2026-04-28 16:39 | 37.40368 | 132.71852 | 38010 ft | 427 kts | 351° |
| 2026-04-28 16:39 | 37.46246 | 132.70699 | 38010 ft | 427 kts | 351° |
| 2026-04-28 16:40 | 37.52121 | 132.69550 | 38009 ft | 428 kts | 351° |
| 2026-04-28 16:40 | 37.58003 | 132.68398 | 38010 ft | 428 kts | 351° |
| 2026-04-28 16:41 | 37.63889 | 132.67244 | 38009 ft | 428 kts | 351° |
| 2026-04-28 16:41 | 37.69774 | 132.66087 | 38010 ft | 428 kts | 351° |
| 2026-04-28 16:42 | 37.75671 | 132.64923 | 38010 ft | 428 kts | 351° |
| 2026-04-28 16:42 | 37.81571 | 132.63757 | 38008 ft | 429 kts | 351° |
| 2026-04-28 16:43 | 37.87465 | 132.62590 | 38009 ft | 429 kts | 351° |
| 2026-04-28 16:43 | 37.93322 | 132.61431 | 38009 ft | 429 kts | 351° |
| 2026-04-28 16:44 | 37.99218 | 132.60261 | 38009 ft | 429 kts | 351° |
| 2026-04-28 16:44 | 38.05116 | 132.59099 | 38009 ft | 429 kts | 351° |
| 2026-04-28 16:45 | 38.11015 | 132.57931 | 38009 ft | 429 kts | 351° |
| 2026-04-28 16:45 | 38.16914 | 132.56763 | 38010 ft | 429 kts | 351° |
| 2026-04-28 16:46 | 38.22812 | 132.55594 | 38010 ft | 429 kts | 351° |
| 2026-04-28 16:46 | 38.28713 | 132.54421 | 38010 ft | 429 kts | 351° |
| 2026-04-28 16:47 | 38.34616 | 132.53245 | 38010 ft | 429 kts | 351° |
| 2026-04-28 16:47 | 38.40480 | 132.52075 | 38010 ft | 429 kts | 351° |
| 2026-04-28 16:48 | 38.46380 | 132.50898 | 38010 ft | 429 kts | 351° |
| 2026-04-28 16:48 | 38.52284 | 132.49718 | 38010 ft | 429 kts | 351° |
| 2026-04-28 16:49 | 38.58188 | 132.48534 | 38010 ft | 429 kts | 351° |
| 2026-04-28 16:49 | 38.63995 | 132.46823 | 38009 ft | 429 kts | 339° |
| 2026-04-28 16:50 | 38.69347 | 132.43471 | 38010 ft | 428 kts | 332° |
| 2026-04-28 16:50 | 38.74595 | 132.39954 | 38009 ft | 428 kts | 332° |
| 2026-04-28 16:51 | 38.79875 | 132.36402 | 38007 ft | 428 kts | 332° |
| 2026-04-28 16:51 | 38.85150 | 132.32851 | 38009 ft | 428 kts | 332° |
| 2026-04-28 16:52 | 38.90424 | 132.29295 | 38009 ft | 428 kts | 332° |
| 2026-04-28 16:52 | 38.95706 | 132.25728 | 38009 ft | 428 kts | 332° |
| 2026-04-28 16:53 | 39.00983 | 132.22155 | 38009 ft | 428 kts | 332° |
| 2026-04-28 16:53 | 39.06260 | 132.18578 | 38009 ft | 428 kts | 332° |
| 2026-04-28 16:54 | 39.11539 | 132.14994 | 38009 ft | 428 kts | 332° |
| 2026-04-28 16:54 | 39.16811 | 132.11409 | 38009 ft | 428 kts | 332° |
| 2026-04-28 16:55 | 39.22056 | 132.07836 | 38009 ft | 428 kts | 332° |
| 2026-04-28 16:55 | 39.27331 | 132.04234 | 38009 ft | 428 kts | 332° |
| 2026-04-28 16:56 | 39.32597 | 132.00633 | 38010 ft | 428 kts | 332° |
| 2026-04-28 16:56 | 39.37865 | 131.97027 | 38010 ft | 428 kts | 332° |
| 2026-04-28 16:57 | 39.43129 | 131.93416 | 38010 ft | 428 kts | 332° |
| 2026-04-28 16:57 | 39.48398 | 131.89795 | 38010 ft | 428 kts | 332° |
| 2026-04-28 16:58 | 39.53662 | 131.86170 | 38010 ft | 428 kts | 332° |
| 2026-04-28 16:58 | 39.58929 | 131.82538 | 38010 ft | 428 kts | 332° |
| 2026-04-28 16:59 | 39.64200 | 131.78898 | 38010 ft | 428 kts | 332° |
| 2026-04-28 16:59 | 39.69427 | 131.75281 | 38010 ft | 428 kts | 331° |
| 2026-04-28 17:00 | 39.74693 | 131.71630 | 38010 ft | 428 kts | 331° |
| 2026-04-28 17:00 | 39.79952 | 131.67977 | 38010 ft | 428 kts | 331° |
| 2026-04-28 17:01 | 39.85216 | 131.64316 | 38010 ft | 428 kts | 331° |
| 2026-04-28 17:01 | 39.90474 | 131.60654 | 38010 ft | 428 kts | 331° |
| 2026-04-28 17:02 | 39.95730 | 131.56984 | 38010 ft | 428 kts | 331° |
| 2026-04-28 17:02 | 40.00947 | 131.53335 | 38010 ft | 429 kts | 331° |
| 2026-04-28 17:03 | 40.08830 | 131.47811 | 38010 ft | 429 kts | 331° |
| 2026-04-28 17:03 | 40.14088 | 131.44117 | 38010 ft | 429 kts | 331° |
| 2026-04-28 17:04 | 40.21967 | 131.38571 | 38010 ft | 429 kts | 331° |
| 2026-04-28 17:05 | 40.29818 | 131.33032 | 38010 ft | 429 kts | 331° |
| 2026-04-28 17:06 | 40.37692 | 131.27459 | 38010 ft | 429 kts | 331° |
| 2026-04-28 17:06 | 40.45567 | 131.21871 | 38010 ft | 429 kts | 331° |
| 2026-04-28 17:07 | 40.50811 | 131.18143 | 38010 ft | 429 kts | 331° |
| 2026-04-28 17:07 | 40.56054 | 131.14407 | 38010 ft | 429 kts | 331° |
| 2026-04-28 17:08 | 40.61261 | 131.10690 | 38010 ft | 429 kts | 331° |
| 2026-04-28 17:08 | 40.66508 | 131.06938 | 38010 ft | 429 kts | 331° |
| 2026-04-28 17:09 | 40.71754 | 131.03182 | 38010 ft | 429 kts | 331° |
| 2026-04-28 17:09 | 40.77001 | 130.99418 | 38010 ft | 429 kts | 331° |
| 2026-04-28 17:10 | 40.82241 | 130.95650 | 38010 ft | 429 kts | 331° |
| 2026-04-28 17:10 | 40.87439 | 130.91905 | 38010 ft | 429 kts | 331° |
| 2026-04-28 17:11 | 40.92677 | 130.88127 | 38010 ft | 429 kts | 331° |
| 2026-04-28 17:11 | 40.97912 | 130.84345 | 38010 ft | 429 kts | 331° |
| 2026-04-28 17:12 | 41.03156 | 130.80548 | 38010 ft | 429 kts | 331° |
| 2026-04-28 17:12 | 41.08355 | 130.76775 | 38010 ft | 429 kts | 331° |
| 2026-04-28 17:13 | 41.13582 | 130.72975 | 38010 ft | 429 kts | 331° |
| 2026-04-28 17:13 | 41.18814 | 130.69167 | 38010 ft | 429 kts | 331° |
| 2026-04-28 17:14 | 41.24048 | 130.65350 | 38010 ft | 429 kts | 331° |
| 2026-04-28 17:14 | 41.29286 | 130.61522 | 38010 ft | 429 kts | 330° |
| 2026-04-28 17:15 | 41.34514 | 130.57693 | 38010 ft | 429 kts | 330° |
| 2026-04-28 17:15 | 41.39712 | 130.53881 | 38010 ft | 429 kts | 330° |
| 2026-04-28 17:16 | 41.44944 | 130.50037 | 38010 ft | 429 kts | 330° |
| 2026-04-28 17:16 | 41.50172 | 130.46189 | 38010 ft | 429 kts | 330° |
| 2026-04-28 17:17 | 41.55358 | 130.42364 | 38010 ft | 429 kts | 330° |
| 2026-04-28 17:17 | 41.60579 | 130.38504 | 38010 ft | 429 kts | 330° |
| 2026-04-28 17:18 | 41.65798 | 130.34642 | 38010 ft | 429 kts | 330° |
| 2026-04-28 17:18 | 41.71016 | 130.30773 | 38010 ft | 429 kts | 330° |
| 2026-04-28 17:19 | 41.76236 | 130.26894 | 38010 ft | 429 kts | 330° |
| 2026-04-28 17:19 | 41.81458 | 130.23003 | 38010 ft | 429 kts | 330° |
| 2026-04-28 17:20 | 41.85795 | 130.19768 | 38010 ft | 429 kts | 330° |
| 2026-04-28 17:20 | 41.91863 | 130.15233 | 38010 ft | 429 kts | 330° |
| 2026-04-28 17:21 | 41.96236 | 130.11959 | 38010 ft | 429 kts | 330° |
| 2026-04-28 17:22 | 42.04024 | 130.06114 | 38010 ft | 429 kts | 330° |
| 2026-04-28 17:22 | 42.09237 | 130.02193 | 38008 ft | 429 kts | 330° |
| 2026-04-28 17:23 | 42.17060 | 129.96293 | 38009 ft | 429 kts | 330° |
| 2026-04-28 17:23 | 42.22289 | 129.92344 | 38009 ft | 429 kts | 330° |
| 2026-04-28 17:24 | 42.27468 | 129.88422 | 38007 ft | 430 kts | 330° |
| 2026-04-28 17:24 | 42.32688 | 129.84460 | 38007 ft | 430 kts | 330° |
| 2026-04-28 17:25 | 42.40514 | 129.78507 | 38008 ft | 430 kts | 330° |
| 2026-04-28 17:26 | 42.45736 | 129.74528 | 38009 ft | 430 kts | 330° |
| 2026-04-28 17:26 | 42.51067 | 129.70837 | 38008 ft | 430 kts | 333° |
| 2026-04-28 17:27 | 42.56411 | 129.67174 | 38009 ft | 430 kts | 333° |
| 2026-04-28 17:27 | 42.61722 | 129.63529 | 38009 ft | 430 kts | 333° |
| 2026-04-28 17:28 | 42.67067 | 129.59856 | 38008 ft | 431 kts | 333° |
| 2026-04-28 17:28 | 42.75088 | 129.54330 | 38008 ft | 430 kts | 333° |
| 2026-04-28 17:29 | 42.80428 | 129.50640 | 38008 ft | 430 kts | 333° |
| 2026-04-28 17:30 | 42.88433 | 129.45095 | 38008 ft | 430 kts | 332° |
| 2026-04-28 17:30 | 42.96297 | 129.39192 | 38009 ft | 430 kts | 331° |
| 2026-04-28 17:31 | 43.04132 | 129.33296 | 38010 ft | 430 kts | 330° |
| 2026-04-28 17:32 | 43.11997 | 129.27363 | 38007 ft | 430 kts | 330° |
| 2026-04-28 17:32 | 43.17238 | 129.23397 | 38008 ft | 430 kts | 330° |
| 2026-04-28 17:33 | 43.22480 | 129.19424 | 38008 ft | 430 kts | 330° |
| 2026-04-28 17:33 | 43.26838 | 129.16114 | 38008 ft | 430 kts | 330° |
| 2026-04-28 17:34 | 43.32959 | 129.11454 | 38009 ft | 430 kts | 330° |
| 2026-04-28 17:34 | 43.38194 | 129.07462 | 38010 ft | 430 kts | 330° |
| 2026-04-28 17:35 | 43.43483 | 129.03702 | 38006 ft | 430 kts | 333° |
| 2026-04-28 17:35 | 43.48827 | 128.99973 | 38008 ft | 430 kts | 333° |
| 2026-04-28 17:36 | 43.54172 | 128.96235 | 38008 ft | 431 kts | 333° |
| 2026-04-28 17:36 | 43.59511 | 128.92500 | 38008 ft | 430 kts | 333° |
| 2026-04-28 17:37 | 43.64856 | 128.88748 | 38010 ft | 431 kts | 333° |
| 2026-04-28 17:37 | 43.70200 | 128.84992 | 38007 ft | 431 kts | 333° |
| 2026-04-28 17:38 | 43.75538 | 128.81232 | 38008 ft | 431 kts | 333° |
| 2026-04-28 17:38 | 43.80850 | 128.77506 | 38008 ft | 431 kts | 333° |
| 2026-04-28 17:39 | 43.86193 | 128.73746 | 38009 ft | 431 kts | 333° |
| 2026-04-28 17:40 | 43.94207 | 128.68092 | 38009 ft | 431 kts | 333° |
| 2026-04-28 17:40 | 43.99551 | 128.64311 | 38009 ft | 430 kts | 333° |
| 2026-04-28 17:41 | 44.04891 | 128.60527 | 38010 ft | 431 kts | 333° |
| 2026-04-28 17:41 | 44.10222 | 128.56716 | 38005 ft | 430 kts | 330° |
| 2026-04-28 17:42 | 44.14912 | 128.51665 | 38004 ft | 430 kts | 314° |
| 2026-04-28 17:42 | 44.18998 | 128.45583 | 38007 ft | 429 kts | 313° |
| 2026-04-28 17:43 | 44.23081 | 128.39509 | 38009 ft | 429 kts | 313° |
| 2026-04-28 17:43 | 44.27156 | 128.33416 | 38010 ft | 429 kts | 313° |
| 2026-04-28 17:44 | 44.31229 | 128.27320 | 38007 ft | 429 kts | 312° |
| 2026-04-28 17:44 | 44.35297 | 128.21214 | 38008 ft | 429 kts | 312° |
| 2026-04-28 17:45 | 44.39367 | 128.15093 | 38008 ft | 429 kts | 312° |
| 2026-04-28 17:45 | 44.43407 | 128.09005 | 38009 ft | 429 kts | 312° |
| 2026-04-28 17:46 | 44.47469 | 128.02869 | 38010 ft | 429 kts | 312° |
| 2026-04-28 17:46 | 44.51532 | 127.96720 | 38007 ft | 430 kts | 312° |
| 2026-04-28 17:47 | 44.55590 | 127.90563 | 38007 ft | 430 kts | 312° |
| 2026-04-28 17:47 | 44.59616 | 127.84440 | 38007 ft | 429 kts | 312° |
| 2026-04-28 17:48 | 44.63668 | 127.78269 | 38007 ft | 429 kts | 312° |
| 2026-04-28 17:48 | 44.67714 | 127.72087 | 38008 ft | 429 kts | 312° |
| 2026-04-28 17:49 | 44.71756 | 127.65901 | 38008 ft | 429 kts | 312° |
| 2026-04-28 17:49 | 44.75793 | 127.59707 | 38008 ft | 429 kts | 312° |
| 2026-04-28 17:50 | 44.79827 | 127.53509 | 38008 ft | 429 kts | 312° |
| 2026-04-28 17:50 | 44.83857 | 127.47297 | 38008 ft | 429 kts | 312° |
| 2026-04-28 17:51 | 44.87882 | 127.41082 | 38009 ft | 429 kts | 312° |
| 2026-04-28 17:51 | 44.91874 | 127.34904 | 38009 ft | 429 kts | 312° |
| 2026-04-28 17:52 | 44.95893 | 127.28668 | 38009 ft | 429 kts | 312° |
| 2026-04-28 17:52 | 45.01912 | 127.19308 | 38010 ft | 429 kts | 311° |
| 2026-04-28 17:53 | 45.05963 | 127.13096 | 38009 ft | 429 kts | 313° |
| 2026-04-28 17:53 | 45.10060 | 127.06954 | 38008 ft | 429 kts | 312° |
| 2026-04-28 17:54 | 45.14121 | 127.00756 | 38007 ft | 429 kts | 313° |
| 2026-04-28 17:54 | 45.18202 | 126.94566 | 38008 ft | 429 kts | 312° |
| 2026-04-28 17:55 | 45.22270 | 126.88358 | 38008 ft | 429 kts | 312° |
| 2026-04-28 17:55 | 45.26309 | 126.82191 | 38008 ft | 429 kts | 312° |
| 2026-04-28 17:56 | 45.30368 | 126.75972 | 38009 ft | 429 kts | 312° |
| 2026-04-28 17:56 | 45.34429 | 126.69740 | 38009 ft | 429 kts | 312° |
| 2026-04-28 17:57 | 45.38486 | 126.63500 | 38009 ft | 429 kts | 312° |
| 2026-04-28 17:57 | 45.42530 | 126.57261 | 38009 ft | 429 kts | 312° |
| 2026-04-28 17:58 | 45.46574 | 126.51013 | 38009 ft | 429 kts | 312° |
| 2026-04-28 17:58 | 45.50615 | 126.44757 | 38009 ft | 429 kts | 312° |
| 2026-04-28 17:59 | 45.54656 | 126.38483 | 38010 ft | 429 kts | 312° |
| 2026-04-28 17:59 | 45.58664 | 126.32245 | 38010 ft | 429 kts | 312° |
| 2026-04-28 18:00 | 45.62699 | 126.25963 | 38010 ft | 429 kts | 313° |
| 2026-04-28 18:00 | 45.66954 | 126.19972 | 38007 ft | 429 kts | 315° |
| 2026-04-28 18:01 | 45.71189 | 126.13964 | 38008 ft | 429 kts | 315° |
| 2026-04-28 18:01 | 45.75436 | 126.07956 | 38008 ft | 429 kts | 315° |
| 2026-04-28 18:02 | 45.79678 | 126.01930 | 38010 ft | 429 kts | 315° |
| 2026-04-28 18:02 | 45.83913 | 125.95901 | 38009 ft | 429 kts | 315° |
| 2026-04-28 18:03 | 45.88121 | 125.89900 | 38010 ft | 429 kts | 315° |
| 2026-04-28 18:03 | 45.92354 | 125.83848 | 38010 ft | 429 kts | 315° |
| 2026-04-28 18:04 | 45.96582 | 125.77789 | 38010 ft | 429 kts | 314° |
| 2026-04-28 18:04 | 46.00806 | 125.71721 | 38008 ft | 429 kts | 314° |
| 2026-04-28 18:05 | 46.04315 | 125.66672 | 38008 ft | 429 kts | 314° |
| 2026-04-28 18:05 | 46.09250 | 125.59553 | 38009 ft | 429 kts | 314° |
| 2026-04-28 18:06 | 46.13464 | 125.53461 | 38009 ft | 429 kts | 314° |
| 2026-04-28 18:06 | 46.17675 | 125.47356 | 38009 ft | 429 kts | 314° |
| 2026-04-28 18:07 | 46.21883 | 125.41242 | 38010 ft | 429 kts | 314° |
| 2026-04-28 18:07 | 46.26059 | 125.35160 | 38010 ft | 429 kts | 314° |
| 2026-04-28 18:08 | 46.29595 | 125.30058 | 38010 ft | 429 kts | 315° |
| 2026-04-28 18:08 | 46.34578 | 125.23050 | 38009 ft | 429 kts | 315° |
| 2026-04-28 18:09 | 46.38133 | 125.17957 | 38009 ft | 429 kts | 315° |
| 2026-04-28 18:09 | 46.42366 | 125.11938 | 38009 ft | 429 kts | 315° |
| 2026-04-28 18:10 | 46.46619 | 125.05851 | 38009 ft | 429 kts | 315° |
| 2026-04-28 18:10 | 46.50866 | 124.99767 | 38010 ft | 429 kts | 315° |
| 2026-04-28 18:11 | 46.55112 | 124.93670 | 38010 ft | 429 kts | 315° |
| 2026-04-28 18:11 | 46.59364 | 124.87547 | 38008 ft | 429 kts | 315° |
| 2026-04-28 18:12 | 46.63607 | 124.81425 | 38009 ft | 429 kts | 315° |
| 2026-04-28 18:12 | 46.67824 | 124.75327 | 38009 ft | 429 kts | 315° |
| 2026-04-28 18:13 | 46.72057 | 124.69187 | 38009 ft | 429 kts | 315° |
| 2026-04-28 18:13 | 46.76292 | 124.63038 | 38009 ft | 429 kts | 315° |
| 2026-04-28 18:14 | 46.80521 | 124.56877 | 38010 ft | 429 kts | 314° |
| 2026-04-28 18:14 | 46.84028 | 124.51757 | 38010 ft | 429 kts | 314° |
| 2026-04-28 18:15 | 46.88962 | 124.44537 | 38008 ft | 429 kts | 314° |
| 2026-04-28 18:15 | 46.93177 | 124.38356 | 38008 ft | 429 kts | 314° |
| 2026-04-28 18:16 | 46.97390 | 124.32162 | 38009 ft | 429 kts | 314° |
| 2026-04-28 18:16 | 47.01578 | 124.25988 | 38009 ft | 429 kts | 314° |
| 2026-04-28 18:17 | 47.05782 | 124.19776 | 38009 ft | 429 kts | 314° |
| 2026-04-28 18:17 | 47.09987 | 124.13552 | 38009 ft | 429 kts | 314° |
| 2026-04-28 18:18 | 47.14187 | 124.07318 | 38009 ft | 429 kts | 314° |
| 2026-04-28 18:18 | 47.17676 | 124.02125 | 38008 ft | 429 kts | 314° |
| 2026-04-28 18:19 | 47.22580 | 123.94813 | 38008 ft | 429 kts | 314° |
| 2026-04-28 18:19 | 47.26390 | 123.88054 | 38006 ft | 429 kts | 306° |
| 2026-04-28 18:20 | 47.29881 | 123.81000 | 38008 ft | 429 kts | 306° |
| 2026-04-28 18:20 | 47.33379 | 123.73883 | 38009 ft | 429 kts | 306° |
| 2026-04-28 18:21 | 47.36881 | 123.66754 | 38009 ft | 429 kts | 305° |
| 2026-04-28 18:21 | 47.40372 | 123.59622 | 39352 ft | 429 kts | 307° |
| 2026-04-28 18:22 | 47.42122 | 123.56041 | 39244 ft | 431 kts | 307° |
| 2026-04-28 18:22 | 47.43877 | 123.52442 | 39135 ft | 432 kts | 307° |
| 2026-04-28 18:22 | 47.45639 | 123.48829 | 39019 ft | 433 kts | 307° |
| 2026-04-28 18:22 | 47.47401 | 123.45209 | 38914 ft | 434 kts | 307° |
| 2026-04-28 18:23 | 47.49142 | 123.41628 | 38808 ft | 434 kts | 307° |
| 2026-04-28 18:23 | 47.50905 | 123.37995 | 38701 ft | 435 kts | 307° |
| 2026-04-28 18:23 | 47.52673 | 123.34351 | 38592 ft | 436 kts | 307° |
| 2026-04-28 18:23 | 47.54439 | 123.30705 | 38466 ft | 436 kts | 307° |
| 2026-04-28 18:24 | 47.56203 | 123.27050 | 38329 ft | 436 kts | 307° |
| 2026-04-28 18:24 | 47.57375 | 123.24627 | 38238 ft | 437 kts | 307° |
| 2026-04-28 18:24 | 47.59737 | 123.19731 | 38057 ft | 437 kts | 307° |
| 2026-04-28 18:24 | 47.61507 | 123.16057 | 37924 ft | 437 kts | 307° |
| 2026-04-28 18:25 | 47.65016 | 123.08751 | 37904 ft | 432 kts | 307° |
| 2026-04-28 18:26 | 47.70205 | 122.97925 | 37905 ft | 426 kts | 307° |
| 2026-04-28 18:26 | 47.73621 | 122.90768 | 37902 ft | 423 kts | 307° |
| 2026-04-28 18:27 | 47.76990 | 122.83692 | 37903 ft | 421 kts | 307° |
| 2026-04-28 18:27 | 47.80368 | 122.76596 | 37910 ft | 419 kts | 308° |
| 2026-04-28 18:28 | 47.83849 | 122.69635 | 37915 ft | 418 kts | 308° |
| 2026-04-28 18:28 | 47.87296 | 122.62682 | 37915 ft | 417 kts | 308° |
| 2026-04-28 18:29 | 47.90740 | 122.55749 | 37929 ft | 416 kts | 308° |
| 2026-04-28 18:29 | 47.94176 | 122.48807 | 37932 ft | 416 kts | 308° |
| 2026-04-28 18:30 | 47.97599 | 122.41867 | 37940 ft | 415 kts | 308° |
| 2026-04-28 18:30 | 48.00999 | 122.34962 | 37942 ft | 415 kts | 308° |
| 2026-04-28 18:31 | 48.04411 | 122.28015 | 37947 ft | 415 kts | 308° |
| 2026-04-28 18:31 | 48.07823 | 122.21049 | 37955 ft | 414 kts | 308° |
| 2026-04-28 18:32 | 48.11227 | 122.14081 | 37954 ft | 414 kts | 308° |
| 2026-04-28 18:32 | 48.14621 | 122.07118 | 37967 ft | 414 kts | 308° |
| 2026-04-28 18:33 | 48.18014 | 122.00138 | 37968 ft | 414 kts | 308° |
| 2026-04-28 18:33 | 48.21401 | 121.93149 | 37968 ft | 414 kts | 308° |
| 2026-04-28 18:34 | 48.24780 | 121.86162 | 37969 ft | 414 kts | 308° |
| 2026-04-28 18:34 | 48.28160 | 121.79157 | 37978 ft | 414 kts | 308° |
| 2026-04-28 18:35 | 48.31530 | 121.72150 | 37975 ft | 414 kts | 308° |
| 2026-04-28 18:35 | 48.34877 | 121.65174 | 37981 ft | 414 kts | 308° |
| 2026-04-28 18:35 | 48.36547 | 121.61685 | 37583 ft | 408 kts | 309° |
| 2026-04-28 18:36 | 48.38190 | 121.58244 | 37733 ft | 401 kts | 309° |
| 2026-04-28 18:36 | 48.39808 | 121.54861 | 37871 ft | 396 kts | 309° |
| 2026-04-28 18:36 | 48.41408 | 121.51510 | 37995 ft | 392 kts | 309° |
| 2026-04-28 18:37 | 48.44578 | 121.44855 | 37998 ft | 390 kts | 309° |
| 2026-04-28 18:37 | 48.47725 | 121.38231 | 38004 ft | 388 kts | 309° |
| 2026-04-28 18:38 | 48.50858 | 121.31617 | 38009 ft | 387 kts | 309° |
| 2026-04-28 18:38 | 48.53978 | 121.25017 | 38007 ft | 386 kts | 309° |
| 2026-04-28 18:39 | 48.57089 | 121.18424 | 38010 ft | 385 kts | 309° |
| 2026-04-28 18:39 | 48.60189 | 121.11833 | 38014 ft | 385 kts | 309° |
| 2026-04-28 18:40 | 48.63266 | 121.05279 | 38013 ft | 385 kts | 309° |
| 2026-04-28 18:40 | 48.66357 | 120.98674 | 38014 ft | 385 kts | 309° |
| 2026-04-28 18:41 | 48.69442 | 120.92067 | 38012 ft | 384 kts | 309° |
| 2026-04-28 18:41 | 48.72523 | 120.85455 | 38009 ft | 384 kts | 309° |
| 2026-04-28 18:42 | 48.75617 | 120.78863 | 38009 ft | 383 kts | 309° |
| 2026-04-28 18:42 | 48.78717 | 120.72287 | 38011 ft | 384 kts | 309° |
| 2026-04-28 18:43 | 48.81812 | 120.65679 | 38010 ft | 384 kts | 309° |
| 2026-04-28 18:43 | 48.84907 | 120.59068 | 38007 ft | 384 kts | 309° |
| 2026-04-28 18:44 | 48.87997 | 120.52449 | 38001 ft | 384 kts | 309° |
| 2026-04-28 18:44 | 48.92627 | 120.42499 | 38005 ft | 384 kts | 309° |
| 2026-04-28 18:45 | 48.95704 | 120.35864 | 38009 ft | 384 kts | 308° |
| 2026-04-28 18:45 | 48.98783 | 120.29210 | 38003 ft | 384 kts | 308° |
| 2026-04-28 18:46 | 49.01838 | 120.22593 | 38003 ft | 384 kts | 308° |
| 2026-04-28 18:46 | 49.04911 | 120.15918 | 38001 ft | 385 kts | 308° |
| 2026-04-28 18:47 | 49.07981 | 120.09234 | 38006 ft | 385 kts | 308° |
| 2026-04-28 18:47 | 49.11046 | 120.02546 | 37998 ft | 385 kts | 308° |
| 2026-04-28 18:48 | 49.14109 | 119.95844 | 37993 ft | 384 kts | 308° |
| 2026-04-28 18:48 | 49.17158 | 119.89134 | 37992 ft | 385 kts | 307° |
| 2026-04-28 18:49 | 49.18852 | 119.84356 | 37996 ft | 388 kts | 298° |
| 2026-04-28 18:49 | 49.20275 | 119.77746 | 37994 ft | 394 kts | 287° |
| 2026-04-28 18:49 | 49.20709 | 119.73589 | 37987 ft | 398 kts | 280° |
| 2026-04-28 18:50 | 49.21078 | 119.65194 | 37989 ft | 398 kts | 278° |
| 2026-04-28 18:50 | 49.21449 | 119.56733 | 37986 ft | 399 kts | 278° |
| 2026-04-28 18:51 | 49.21803 | 119.48268 | 37988 ft | 399 kts | 278° |
| 2026-04-28 18:51 | 49.22157 | 119.39797 | 37987 ft | 399 kts | 278° |
| 2026-04-28 18:52 | 49.22500 | 119.31322 | 37988 ft | 399 kts | 278° |
| 2026-04-28 18:52 | 49.22840 | 119.22846 | 37990 ft | 399 kts | 278° |
| 2026-04-28 18:53 | 49.23174 | 119.14373 | 37987 ft | 399 kts | 278° |
| 2026-04-28 18:53 | 49.23498 | 119.05938 | 37986 ft | 399 kts | 278° |
| 2026-04-28 18:54 | 49.23819 | 118.97456 | 37988 ft | 400 kts | 277° |
| 2026-04-28 18:54 | 49.24121 | 118.88958 | 37989 ft | 400 kts | 277° |
| 2026-04-28 18:55 | 49.24373 | 118.81836 | 37988 ft | 400 kts | 277° |
| 2026-04-28 18:55 | 49.24716 | 118.71955 | 37990 ft | 400 kts | 277° |
| 2026-04-28 18:56 | 49.25003 | 118.63455 | 37991 ft | 400 kts | 277° |
| 2026-04-28 18:56 | 49.25285 | 118.54947 | 37992 ft | 400 kts | 277° |
| 2026-04-28 18:57 | 49.25514 | 118.47857 | 37992 ft | 400 kts | 277° |
| 2026-04-28 18:57 | 49.25828 | 118.37966 | 37994 ft | 400 kts | 277° |
| 2026-04-28 18:58 | 49.26091 | 118.29457 | 37994 ft | 400 kts | 277° |
| 2026-04-28 18:58 | 49.26306 | 118.22332 | 37996 ft | 400 kts | 277° |
| 2026-04-28 18:59 | 49.26991 | 118.13948 | 37994 ft | 394 kts | 288° |
| 2026-04-28 18:59 | 49.28906 | 118.06223 | 37993 ft | 389 kts | 300° |
| 2026-04-28 19:00 | 49.31897 | 117.99393 | 37996 ft | 385 kts | 309° |
| 2026-04-28 19:00 | 49.35114 | 117.92815 | 37994 ft | 385 kts | 309° |
| 2026-04-28 19:01 | 49.38332 | 117.86244 | 37999 ft | 385 kts | 309° |
| 2026-04-28 19:01 | 49.41545 | 117.79665 | 38002 ft | 385 kts | 309° |
| 2026-04-28 19:02 | 49.44750 | 117.73081 | 37997 ft | 385 kts | 309° |
| 2026-04-28 19:02 | 49.47950 | 117.66491 | 37997 ft | 385 kts | 309° |
| 2026-04-28 19:03 | 49.51144 | 117.59899 | 38001 ft | 384 kts | 309° |
| 2026-04-28 19:03 | 49.54338 | 117.53293 | 38003 ft | 384 kts | 309° |
| 2026-04-28 19:04 | 49.57527 | 117.46680 | 38001 ft | 385 kts | 309° |
| 2026-04-28 19:04 | 49.61050 | 117.40533 | 37998 ft | 383 kts | 315° |
| 2026-04-28 19:05 | 49.64960 | 117.35088 | 37995 ft | 381 kts | 323° |
| 2026-04-28 19:05 | 49.69142 | 117.30053 | 37994 ft | 381 kts | 323° |
| 2026-04-28 19:06 | 49.73325 | 117.25010 | 37996 ft | 381 kts | 323° |
| 2026-04-28 19:06 | 49.77501 | 117.19968 | 37996 ft | 381 kts | 323° |
| 2026-04-28 19:07 | 49.81675 | 117.14912 | 37995 ft | 381 kts | 323° |
| 2026-04-28 19:07 | 49.85852 | 117.09843 | 37994 ft | 381 kts | 323° |
| 2026-04-28 19:08 | 49.90020 | 117.04773 | 37996 ft | 381 kts | 323° |
| 2026-04-28 19:08 | 49.94167 | 116.99719 | 37998 ft | 381 kts | 323° |
| 2026-04-28 19:09 | 49.98332 | 116.94632 | 37997 ft | 381 kts | 322° |
| 2026-04-28 19:09 | 50.02494 | 116.89532 | 37996 ft | 380 kts | 322° |
| 2026-04-28 19:10 | 50.06648 | 116.84434 | 37995 ft | 380 kts | 322° |
| 2026-04-28 19:10 | 50.10795 | 116.79334 | 37993 ft | 380 kts | 322° |
| 2026-04-28 19:11 | 50.14946 | 116.74218 | 37994 ft | 380 kts | 322° |
| 2026-04-28 19:11 | 50.19085 | 116.69096 | 37992 ft | 380 kts | 322° |
| 2026-04-28 19:12 | 50.23219 | 116.63968 | 37992 ft | 379 kts | 322° |
| 2026-04-28 19:12 | 50.27351 | 116.58833 | 37991 ft | 379 kts | 322° |
| 2026-04-28 19:13 | 50.31449 | 116.53727 | 37988 ft | 379 kts | 322° |
| 2026-04-28 19:13 | 50.35570 | 116.48583 | 37992 ft | 379 kts | 322° |
| 2026-04-28 19:14 | 50.39249 | 116.42669 | 37993 ft | 380 kts | 309° |
| 2026-04-28 19:14 | 50.42148 | 116.35737 | 37995 ft | 380 kts | 304° |
| 2026-04-28 19:15 | 50.44985 | 116.28739 | 37994 ft | 380 kts | 304° |
| 2026-04-28 19:15 | 50.47342 | 116.22863 | 37996 ft | 379 kts | 304° |
| 2026-04-28 19:16 | 50.50610 | 116.14722 | 37998 ft | 379 kts | 304° |
| 2026-04-28 19:16 | 50.53412 | 116.07714 | 37994 ft | 379 kts | 304° |
| 2026-04-28 19:17 | 50.56210 | 116.00698 | 37995 ft | 378 kts | 304° |
| 2026-04-28 19:17 | 50.58968 | 115.93640 | 37995 ft | 378 kts | 302° |
| 2026-04-28 19:18 | 50.61628 | 115.86499 | 37988 ft | 378 kts | 302° |
| 2026-04-28 19:18 | 50.64294 | 115.79365 | 37988 ft | 378 kts | 302° |
| 2026-04-28 19:19 | 50.66926 | 115.72274 | 37981 ft | 377 kts | 302° |
| 2026-04-28 19:19 | 50.69580 | 115.65120 | 37975 ft | 377 kts | 302° |
| 2026-04-28 19:20 | 50.72221 | 115.57977 | 37972 ft | 377 kts | 302° |
| 2026-04-28 19:20 | 50.74858 | 115.50824 | 37967 ft | 377 kts | 302° |
| 2026-04-28 19:21 | 50.77491 | 115.43661 | 37966 ft | 377 kts | 301° |
| 2026-04-28 19:21 | 50.80120 | 115.36494 | 37956 ft | 376 kts | 301° |
| 2026-04-28 19:22 | 50.82299 | 115.30535 | 37958 ft | 376 kts | 301° |
| 2026-04-28 19:22 | 50.85357 | 115.22148 | 37951 ft | 377 kts | 301° |
| 2026-04-28 19:23 | 50.87968 | 115.14966 | 37949 ft | 376 kts | 301° |
| 2026-04-28 19:23 | 50.90578 | 115.07770 | 37955 ft | 377 kts | 301° |
| 2026-04-28 19:24 | 50.93165 | 115.00612 | 37950 ft | 377 kts | 301° |
| 2026-04-28 19:24 | 50.95766 | 114.93397 | 37952 ft | 376 kts | 301° |
| 2026-04-28 19:25 | 50.98363 | 114.86176 | 37951 ft | 376 kts | 301° |